Cisco Butte, California Weather observations

Data are for observation ending at time listed.
 Day   Time    Ave.   Ave.  Ave.  Vector   Max.   Stn.    Total    Solar   Ave.   Snow 
  of    of     Air    Rel.  Wind   Wind    Wind   Baro.  Precip.   Rad.    Soil   Depth
Year   Day     Temp.  Hum.  Speed  Dir.    Gust   Pres.                    Temp.       
2015   (PST)    F      %     mph   deg.    mph     mb.     in.     W/m2     F      in. 
---------------------------------------------------------------------------------------  
 214   15:50   72.5    33   12.9   278     19.9   825.0    0.00     108    999.0  159.0
 214   16:00   72.8    33   11.6   280     18.4   825.0    0.00     318    999.0  159.0
 214   16:10   72.7    33   10.9   281     16.6   825.0    0.00     387    999.0  159.0
 214   16:20   72.8    33    9.7   281     17.0   825.0    0.00     363    999.0  159.1
 214   16:30   72.8    33   11.8   282     17.2   825.0    0.00     344    999.0  159.1
 214   16:40   72.4    33   13.3   278     21.6   825.0    0.00     328    999.0  159.2
 214   16:50   72.3    33   11.3   267     17.8   825.0    0.00     316    999.0  159.2
 214   17:00   71.8    33   11.9   269     20.2   825.0    0.00     278    999.0  159.2
 214   17:10   72.0    33   12.2   276     18.9   825.0    0.00     257    999.0  159.2
 214   17:20   71.8    34   11.6   275     16.7   825.0    0.00     191    999.0  159.3
 214   17:30   70.7    35   13.1   282     19.4   825.0    0.00      79    999.0  159.3
 214   17:40   70.5    36   11.0   282     17.4   825.0    0.00      73    999.0  159.3
 214   17:50   70.2    36   11.6   282     16.4   825.0    0.00      65    999.0  159.3
 214   18:00   69.3    38   12.4   279     16.8   825.0    0.00      56    999.0  159.3
 214   18:10   68.7    38   12.2   280     18.1   825.0    0.00      75    999.0  159.3
 214   18:20   68.0    40   11.8   279     17.5   825.0    0.00      74    999.0  159.3
 214   18:30   67.3    41   11.5   281     15.4   825.0    0.00      31    999.0  159.3
 214   18:40   66.4    42   10.9   278     14.9   825.0    0.00      34    999.0  159.2
 214   18:50   65.9    43    9.2   283     11.9   825.0    0.00      21    999.0  159.1
 214   19:00   65.2    44    8.7   280     12.5   825.0    0.00      14    999.0  159.1
 214   19:10   64.6    45    8.7   282     11.6   825.0    0.00       7    999.0  158.9
 214   19:20   64.1    46    8.4   282     11.3   825.0    0.00       2    999.0  158.3
 214   19:30   63.5    47    6.9   279      9.8   825.0    0.00       1    999.0   77.9
 214   19:40   62.9    48    5.7   284      7.9   825.0    0.00       0    999.0  140.2
 214   19:50   62.6    49    4.5   278      7.0   825.0    0.00       0    999.0  155.2
 214   20:00   62.3    49    4.0   272      5.9   825.0    0.00       0    999.0  157.6
 214   20:10   61.6    50    2.9   272      3.9   825.0    0.00       0    999.0  158.3
 214   20:20   61.1    51    1.5   271      3.1   825.0    0.00       0    999.0  158.2
 214   20:30   61.0    52    0.3   269      1.7   825.0    0.00       0    999.0  125.8
 214   20:40  999.0   999  999.0   999    999.0   999.0   999.00     999    999.0  999.0
 214   20:50   61.2    51    0.0     0      0.0   826.0    0.00       0    999.0   95.8
 214   21:00   61.3    51    0.1   121      1.1   826.0    0.00       0    999.0  142.5
 214   21:10   61.1    52    1.9    86      3.6   826.0    0.00       0    999.0   47.6
 214   21:20   59.8    56    3.8   104      8.0   826.0    0.00       0    999.0  158.9
 214   21:30   59.1    57    5.5   110      8.6   826.0    0.00       0    999.0  159.0
 214   21:40   58.5    59    7.1   112     10.3   825.0    0.00       0    999.0  159.1
 214   21:50   58.2    59    8.5   111     11.5   825.0    0.00       0    999.0  159.1
 214   22:00   57.8    60    8.4   111     11.5   825.0    0.00       0    999.0  159.1
 214   22:10   57.6    60    8.1   106     11.3   825.0    0.00       0    999.0  158.9
 214   22:20   58.1    60    8.4   104     11.6   825.0    0.00       0    999.0  158.9
 214   22:30   57.9    60    8.3   108     12.0   825.0    0.00       0    999.0  158.9
 214   22:40   57.7    60    7.6   106     10.9   825.0    0.00       0    999.0  158.7
 214   22:50   57.2    62    8.7   111     12.4   825.0    0.00       0    999.0   62.4
 214   23:00   57.3    61    7.9   106     11.1   825.0    0.00       0    999.0   63.2
 214   23:10   57.0    62    8.6   109     11.7   825.0    0.00       0    999.0   15.6
 214   23:20   57.1    61   10.0   112     13.7   825.0    0.00       0    999.0   -0.2
 214   23:30   57.1    61    8.9   111     11.1   825.0    0.00       0    999.0   -0.3
 214   23:40   57.1    61    9.2   107     12.0   825.0    0.00       0    999.0   -0.2
 214   23:50   57.4    60    9.3   107     11.9   825.0    0.00       0    999.0   -0.2
 215    0:00   57.8    59    8.4   106     10.9   825.0    0.00       0    999.0   -0.3
 215    0:10   57.5    60    8.8   105     10.4   825.0    0.00       0    999.0   -0.2
 215    0:20   57.7    60    9.0   104     12.9   825.0    0.00       0    999.0   -0.2
 215    0:30   58.0    60    9.4   107     12.4   825.0    0.00       0    999.0   -0.3
 215    0:40   58.1    60    9.8   107     14.3   825.0    0.00       0    999.0   64.2
 215    0:50   58.2    60    8.9   104     11.3   825.0    0.00       0    999.0  158.8
 215    1:00   57.9    61    8.7   104     10.8   825.0    0.00       0    999.0  158.8
 215    1:10   57.8    62    8.4   104     10.7   825.0    0.00       0    999.0  159.1
 215    1:20   57.9    62    8.2   104     10.4   825.0    0.00       0    999.0  159.2
 215    1:30   57.8    62    7.3   105      8.8   825.0    0.00       0    999.0  159.2
 215    1:40   57.6    63    6.7   106      9.0   825.0    0.00       0    999.0  159.1
 215    1:50   58.1    62    6.6    98      9.1   825.0    0.00       0    999.0  159.1
 215    2:00   58.4    61    6.0   103      8.2   825.0    0.00       0    999.0  159.4
 215    2:10   57.9    62    5.1    98      7.5   825.0    0.00       0    999.0  159.4
 215    2:20   58.2    62    5.0    95      6.4   825.0    0.00       0    999.0  159.4
 215    2:30   58.2    62    5.0    95      6.9   825.0    0.00       0    999.0  159.2
 215    2:40   57.8    62    4.7    98      7.7   825.0    0.00       0    999.0  159.2
 215    2:50   57.6    63    4.1    85      6.1   825.0    0.00       0    999.0  159.2
 215    3:00   57.2    63    3.8    94      6.8   825.0    0.00       0    999.0  159.1
 215    3:10   56.8    64    3.5    95      6.6   825.0    0.00       0    999.0  159.2
 215    3:20   55.9    66    4.6    95      6.8   825.0    0.00       0    999.0  159.2
 215    3:30   55.6    67    5.3   100      7.7   825.0    0.00       0    999.0  159.2
 215    3:40   55.6    66    4.4    97      7.0   825.0    0.00       0    999.0  159.3
 215    3:50   55.6    66    4.4    88      6.3   825.0    0.00       0    999.0  159.2
 215    4:00   55.3    66    5.3   102      8.0   825.0    0.00       0    999.0  159.1
 215    4:10   54.7    68    4.6    97      7.2   825.0    0.00       0    999.0  159.0
 215    4:20   54.7    67    5.0    93      7.3   825.0    0.00       0    999.0  159.2
 215    4:30   55.0    67    4.9    98      7.4   825.0    0.00       0    999.0  159.2
 215    4:40   54.6    67    5.8    99      8.1   825.0    0.00       0    999.0  159.3
 215    4:50   55.1    66    5.6    99      8.0   825.0    0.00       0    999.0  159.2
 215    5:00   55.4    64    5.5   102      7.5   825.0    0.00       0    999.0  159.1
 215    5:10   54.5    66    6.0   101      8.7   825.0    0.00       2    999.0  159.4
 215    5:20   53.5    68    5.4   102      9.6   825.0    0.00       4    999.0  159.5
 215    5:30   53.7    68    5.7   105      8.8   825.0    0.00       9    999.0  159.3
 215    5:40   54.8    65    4.4    96      6.6   825.0    0.00      29    999.0  159.1
 215    5:50   56.5    61    4.6   100      6.1   825.0    0.00      42    999.0  158.5
 215    6:00   56.9    60    4.7    99      6.4   825.0    0.00      56    999.0  158.4
 215    6:10   56.8    60    5.4   105      7.7   825.0    0.00      73    999.0  159.1
 215    6:20   56.9    61    5.3   107      7.9   825.0    0.00      91    999.0  159.1
 215    6:30   57.6    59    4.9   110      7.6   825.0    0.00     110    999.0  159.1
 215    6:40   58.4    58    4.6   111      6.2   825.0    0.00     131    999.0  159.1
 215    6:50   59.5    55    4.4   105      6.1   825.0    0.00     152    999.0  159.1
 215    7:00   61.1    53    3.9   112      5.5   825.0    0.00     174    999.0  159.1
 215    7:10   61.8    51    4.2   112      6.2   825.0    0.00     197    999.0  159.1
 215    7:20   62.9    48    3.7   114      5.9   825.0    0.00     219    999.0  159.1
 215    7:30   63.8    48    2.8   132      5.5   825.0    0.00     243    999.0  159.1
 215    7:40   64.9    45    2.7   170      6.1   825.0    0.00     266    999.0  159.2
 215    7:50   66.2    43    2.2   184      6.5   825.0    0.00     287    999.0  159.2
 215    8:00   68.3    39    3.2   261      6.4   825.0    0.00     306    999.0  159.2
 215    8:10   67.9    38    3.3   269      6.4   825.0    0.00     327    999.0  159.3
 215    8:20   68.8    36    3.1   216      7.2   825.0    0.00     349    999.0  159.2
 215    8:30   66.7    35    5.5   159     10.7   825.0    0.00     374    999.0  159.3
 215    8:40   66.4    35    5.6   163      9.0   825.0    0.00     395    999.0  159.3
 215    8:50   67.1    33    4.9   196     11.2   825.0    0.00     415    999.0  159.2
 215    9:00   67.6    32    4.1   189      9.1   825.0    0.00     433    999.0  159.2
 215    9:10   69.3    30    4.1   242     10.4   825.0    0.00     451    999.0  159.2
 215    9:20   69.1    29   10.6   264     21.4   825.0    0.00     467    999.0  159.3
 215    9:30   67.7    29   11.2   270     17.4   825.0    0.00     486    999.0  159.3
 215    9:40   68.5    29    9.3   268     18.0   825.0    0.00     499    999.0  159.3
 215    9:50   69.3    29    7.0   267     15.5   825.0    0.00     512    999.0  159.3
 215   10:00   68.9    29    9.3   267     15.7   825.0    0.00     526    999.0  159.3
 215   10:10   69.0    28    8.5   274     17.9   825.0    0.00     541    999.0  159.3
 215   10:20   69.4    28    9.1   277     13.4   825.0    0.00     554    999.0  159.3
 215   10:30   70.2    25    6.7   262     14.2   825.0    0.00     566    999.0  159.3
 215   10:40   71.0    25    6.2   243     12.9   826.0    0.00     574    999.0  159.2
 215   10:50   72.0    24    5.8   247     15.9   825.0    0.00     585    999.0  159.2
 215   11:00   71.6    24    6.3   238     12.9   825.0    0.00     595    999.0  159.2
 215   11:10   72.1    24    8.5   279     17.6   825.0    0.00     600    999.0  159.2
 215   11:20   71.5    26    9.7   272     15.7   825.0    0.00     608    999.0  159.3
 215   11:30   71.3    25    9.9   280     18.3   825.0    0.00     612    999.0  159.3
 215   11:40   72.1    26   11.9   278     17.8   825.0    0.00     616    999.0  159.3
 215   11:50   71.6    26   11.7   276     17.7   825.0    0.00     620    999.0  159.3
 215   12:00   72.0    27   11.0   269     17.9   825.0    0.00     619    999.0  159.3
 215   12:10   72.1    27   10.2   266     15.4   825.0    0.00     623    999.0  159.3
 215   12:20   72.9    27   12.3   272     19.3   825.0    0.00     622    999.0  159.2
 215   12:30   71.9    27   13.9   280     19.8   825.0    0.00     620    999.0  159.3
 215   12:40   72.2    28    9.6   267     16.7   825.0    0.00     617    999.0  159.2
 215   12:50   73.1    29    8.9   255     20.0   825.0    0.00     611    999.0  159.1
 215   13:00   73.3    29   11.4   269     19.1   825.0    0.00     609    999.0  159.0
 215   13:10   72.2    30   12.7   281     23.5   825.0    0.00     602    999.0  159.1
 215   13:20   72.2    30   11.5   263     18.9   825.0    0.00     596    999.0  159.2
 215   13:30   72.3    30   11.3   272     20.8   825.0    0.00     588    999.0  159.2
 215   13:40   72.6    29   11.7   272     23.7   825.0    0.00     577    999.0  159.1
 215   13:50   72.5    31   12.8   268     21.4   825.0    0.00     567    999.0  159.1
 215   14:00   73.2    30   10.0   265     18.0   825.0    0.00     556    999.0  159.1
 215   14:10   71.7    31   14.7   283     21.5   825.0    0.00     546    999.0  159.1
 215   14:20   71.4    33   12.5   280     20.1   825.0    0.00     534    999.0  159.1
 215   14:30   71.7    32   12.0   276     16.9   825.0    0.00     521    999.0  159.1
 215   14:40   72.2    31    9.6   262     17.0   825.0    0.00     505    999.0  159.1
 215   14:50   71.5    32    9.6   275     16.3   825.0    0.00     493    999.0  159.1
 215   15:00   71.5    32    9.7   282     16.5   825.0    0.00     476    999.0  159.1
 215   15:10   72.2    31    9.2   271     16.0   825.0    0.00     455    999.0  159.3
 215   15:20   71.4    32    9.2   267     20.0   825.0    0.00     441    999.0  159.1
 215   15:30   72.3    31   10.3   266     18.6   825.0    0.00     416    999.0  159.1
 215   15:40   72.3    30    9.7   268     16.7   825.0    0.00     386    999.0  159.1

Return to Cisco Butte graphs page.


Western Regional Climate Center,wrcc@dri.edu